createdAt,value
2022-10-18T00:04:24.688Z,100710.08
2022-10-18T00:09:28.088Z,100708.35
2022-10-18T00:14:30.752Z,100700.90
2022-10-18T00:19:33.429Z,100697.59
2022-10-18T00:24:35.944Z,100699.16
2022-10-18T00:29:38.354Z,100703.79
2022-10-18T00:34:40.827Z,100707.23
2022-10-18T00:39:43.407Z,100715.66
2022-10-18T00:44:45.788Z,100711.36
2022-10-18T00:49:50.225Z,100716.52
2022-10-18T00:54:53.123Z,100720.18
2022-10-18T00:59:55.740Z,100723.02
2022-10-18T01:04:58.297Z,100723.09
2022-10-18T01:10:03.830Z,100722.77
2022-10-18T01:15:11.360Z,100715.02
2022-10-18T01:20:23.016Z,100706.89
2022-10-18T01:25:28.422Z,100700.87
2022-10-18T01:30:31.815Z,100695.90
2022-10-18T01:42:23.099Z,100691.11
2022-10-18T01:47:26.853Z,100686.97
2022-10-18T01:52:29.595Z,100689.12
2022-10-18T01:57:32.225Z,100685.88
2022-10-18T02:02:35.591Z,100687.98
2022-10-18T02:07:40.995Z,100677.25
2022-10-18T02:12:44.872Z,100677.16
2022-10-18T02:17:47.278Z,100675.65
2022-10-18T02:22:50.983Z,100675.77
2022-10-18T02:27:53.698Z,100671.30
2022-10-18T02:33:16.819Z,100666.29
2022-10-18T02:38:20.328Z,100673.10
2022-10-18T02:43:24.122Z,100676.46
2022-10-18T02:48:26.645Z,100676.77
2022-10-18T02:53:29.035Z,100676.59
2022-10-18T02:58:31.416Z,100683.96
2022-10-18T03:03:33.797Z,100684.64
2022-10-18T03:08:36.457Z,100684.29
2022-10-18T03:13:38.830Z,100695.10
2022-10-18T03:18:41.260Z,100707.58
2022-10-18T03:23:43.707Z,100712.11
2022-10-18T03:28:46.191Z,100713.83
2022-10-18T03:33:48.596Z,100710.97
2022-10-18T03:38:51.033Z,100710.27
2022-10-18T03:43:53.409Z,100719.15
2022-10-18T03:48:55.799Z,100722.19
2022-10-18T03:53:58.192Z,100726.21
2022-10-18T03:59:00.791Z,100732.02
2022-10-18T04:04:03.346Z,100740.07
2022-10-18T04:09:09.349Z,100745.91
2022-10-18T04:14:12.811Z,100744.86
2022-10-18T04:19:15.239Z,100743.31
2022-10-18T04:24:17.995Z,100738.66
2022-10-18T04:29:20.532Z,100736.52
2022-10-18T04:34:23.028Z,100740.19
2022-10-18T04:39:25.499Z,100747.27
2022-10-18T04:44:27.900Z,100747.60
2022-10-18T04:49:30.305Z,100734.13
2022-10-18T04:54:32.756Z,100743.84
2022-10-18T05:06:14.218Z,100757.65
2022-10-18T05:11:16.630Z,100765.48
2022-10-18T05:16:19.049Z,100760.62
2022-10-18T05:21:21.489Z,100759.48
2022-10-18T05:26:23.861Z,100753.94
2022-10-18T05:31:26.288Z,100744.41
2022-10-18T05:36:28.726Z,100748.35
2022-10-18T05:41:31.502Z,100755.63
2022-10-18T05:46:33.993Z,100763.82
2022-10-18T05:51:46.165Z,100766.64
2022-10-18T05:56:57.658Z,100773.52
2022-10-18T06:02:00.036Z,100789.98
2022-10-18T06:07:02.481Z,100790.02
2022-10-18T06:12:05.341Z,100788.63
2022-10-18T06:17:07.736Z,100790.75
2022-10-18T06:22:10.716Z,100777.59
2022-10-18T06:27:13.183Z,100777.53
2022-10-18T06:32:15.917Z,100792.77
2022-10-18T06:37:18.365Z,100798.58
2022-10-18T06:42:22.618Z,100788.20
2022-10-18T06:47:25.249Z,100784.45
2022-10-18T06:52:27.789Z,100791.05
2022-10-18T06:57:30.293Z,100788.59
2022-10-18T07:02:33.160Z,100799.84
2022-10-18T07:07:36.161Z,100805.92
2022-10-18T07:12:38.710Z,100801.65
2022-10-18T07:17:41.728Z,100805.56
2022-10-18T07:22:44.100Z,100808.17
2022-10-18T07:27:46.514Z,100815.10
2022-10-18T07:32:50.828Z,100813.30
2022-10-18T07:37:53.239Z,100819.86
2022-10-18T07:42:55.640Z,100825.25
2022-10-18T07:47:58.078Z,100828.52
2022-10-18T07:53:00.487Z,100833.73
2022-10-18T07:58:03.205Z,100831.31
2022-10-18T08:03:06.064Z,100830.14
2022-10-18T08:08:08.448Z,100837.73
2022-10-18T08:13:10.790Z,100839.80
2022-10-18T08:18:13.188Z,100843.77
2022-10-18T08:23:15.586Z,100833.42
2022-10-18T08:28:18.091Z,100836.58
2022-10-18T08:33:20.480Z,100842.77
2022-10-18T08:38:23.208Z,100840.46
2022-10-18T08:43:25.631Z,100834.36
2022-10-18T08:48:32.903Z,100820.04
2022-10-18T08:53:39.215Z,100808.29
2022-10-18T08:58:44.173Z,100796.41
2022-10-18T09:03:55.810Z,100785.86
2022-10-18T09:09:01.135Z,100791.05
2022-10-18T09:14:15.483Z,100814.95
2022-10-18T09:19:26.171Z,100823.34
2022-10-18T09:24:36.947Z,100817.77
2022-10-18T09:29:42.264Z,100795.29
2022-10-18T09:34:50.565Z,100785.96
2022-10-18T09:39:59.927Z,100766.22
2022-10-18T09:45:04.167Z,100779.09
2022-10-18T09:50:26.526Z,100800.22
2022-10-18T09:55:33.867Z,100794.56
2022-10-18T10:00:41.116Z,100776.14
2022-10-18T10:05:44.436Z,100761.76
2022-10-18T10:10:47.463Z,100759.83
2022-10-18T10:15:53.161Z,100766.56
2022-10-18T10:20:57.363Z,100768.64
2022-10-18T10:26:01.897Z,100764.85
2022-10-18T10:31:07.199Z,100767.69
2022-10-18T10:36:12.508Z,100771.55
2022-10-18T10:41:20.040Z,100775.30
2022-10-18T10:46:23.224Z,100775.89
2022-10-18T10:51:28.774Z,100772.48
2022-10-18T10:56:33.700Z,100774.59
2022-10-18T11:01:37.314Z,100771.23
2022-10-18T11:06:44.842Z,100763.09
2022-10-18T11:11:53.272Z,100766.25
2022-10-18T11:17:04.234Z,100762.78
2022-10-18T11:22:13.642Z,100758.88
2022-10-18T11:27:22.738Z,100751.73
2022-10-18T11:32:31.039Z,100747.12
2022-10-18T11:37:37.554Z,100752.53
2022-10-18T11:42:41.694Z,100744.77
2022-10-18T11:47:53.704Z,100732.69
2022-10-18T11:53:01.455Z,100722.51
2022-10-18T11:58:13.040Z,100718.48
2022-10-18T12:03:19.689Z,100708.98
2022-10-18T12:08:26.798Z,100699.41
2022-10-18T12:13:32.163Z,100689.77
2022-10-18T12:18:36.024Z,100682.69
2022-10-18T12:23:42.184Z,100673.13
2022-10-18T12:28:47.610Z,100669.20
2022-10-18T12:33:53.756Z,100665.39
2022-10-18T12:38:59.915Z,100665.52
2022-10-18T12:44:06.497Z,100673.38
2022-10-18T12:49:11.060Z,100673.14
2022-10-18T12:54:17.184Z,100669.96
2022-10-18T12:59:19.899Z,100663.44
2022-10-18T13:04:25.215Z,100646.67
2022-10-18T13:09:28.747Z,100632.92
2022-10-18T13:14:35.406Z,100638.47
2022-10-18T13:19:37.859Z,100628.84
2022-10-18T13:24:45.230Z,100611.81
2022-10-18T13:29:52.852Z,100601.09
2022-10-18T13:34:55.807Z,100608.17
2022-10-18T13:40:01.152Z,100614.15
2022-10-18T13:45:06.487Z,100610.41
2022-10-18T13:50:16.514Z,100618.73
2022-10-18T13:55:21.914Z,100622.30
2022-10-18T14:00:27.481Z,100623.02
2022-10-18T14:05:32.765Z,100610.64
2022-10-18T14:10:57.510Z,100607.27
2022-10-18T14:16:07.503Z,100603.94
2022-10-18T14:21:19.926Z,100589.41
2022-10-18T14:26:24.329Z,100573.77
2022-10-18T14:31:26.832Z,100570.13
2022-10-18T14:36:30.685Z,100569.01
2022-10-18T14:41:34.591Z,100551.45
2022-10-18T14:46:41.825Z,100537.05
2022-10-18T14:51:45.500Z,100544.32
2022-10-18T14:56:48.166Z,100534.27
2022-10-18T15:01:53.944Z,100528.54
2022-10-18T15:06:56.953Z,100537.45
2022-10-18T15:12:00.601Z,100518.36
2022-10-18T15:17:07.368Z,100528.36
2022-10-18T15:27:35.487Z,100560.66
2022-10-18T15:32:40.227Z,100531.23
2022-10-18T15:37:43.962Z,100511.16
2022-10-18T15:42:46.906Z,100503.85
2022-10-18T15:47:52.216Z,100504.13
2022-10-18T15:52:54.844Z,100512.01
2022-10-18T15:58:03.048Z,100500.56
2022-10-18T16:03:07.508Z,100516.31
2022-10-18T16:08:12.822Z,100511.91
2022-10-18T16:13:15.486Z,100506.46
2022-10-18T16:18:19.002Z,100514.75
2022-10-18T16:23:25.313Z,100524.12
2022-10-18T16:28:28.164Z,100522.91
2022-10-18T16:33:30.911Z,100518.80
2022-10-18T16:38:35.490Z,100525.27
2022-10-18T16:43:39.467Z,100532.77
2022-10-18T16:48:42.848Z,100539.16
2022-10-18T16:53:45.467Z,100538.15
2022-10-18T16:58:48.441Z,100542.68
2022-10-18T17:03:53.822Z,100541.83
2022-10-18T17:08:56.847Z,100538.90
2022-10-18T17:13:59.294Z,100536.70
2022-10-18T17:19:02.816Z,100537.63
2022-10-18T17:24:06.207Z,100539.30
2022-10-18T17:29:08.992Z,100534.39
2022-10-18T17:34:11.380Z,100524.94
2022-10-18T17:39:13.791Z,100541.27
2022-10-18T17:44:16.333Z,100553.80
2022-10-18T17:49:18.765Z,100556.54
2022-10-18T17:54:21.162Z,100547.91
2022-10-18T17:59:23.554Z,100549.02
2022-10-18T18:04:26.074Z,100556.98
2022-10-18T18:09:28.632Z,100564.67
2022-10-18T18:14:31.140Z,100562.98
2022-10-18T18:19:33.648Z,100559.09
2022-10-18T18:24:36.167Z,100562.27
2022-10-18T18:29:38.575Z,100557.63
2022-10-18T18:34:41.666Z,100555.98
2022-10-18T18:39:44.032Z,100552.11
2022-10-18T18:44:46.480Z,100551.93
2022-10-18T18:49:49.308Z,100550.41
2022-10-18T18:54:51.690Z,100554.68
2022-10-18T18:59:54.038Z,100552.79
2022-10-18T19:04:56.449Z,100544.46
2022-10-18T19:09:58.849Z,100545.21
2022-10-18T19:15:01.500Z,100546.36
2022-10-18T19:20:05.042Z,100549.80
2022-10-18T19:25:08.046Z,100546.27
2022-10-18T19:30:11.183Z,100545.83
2022-10-18T19:35:13.638Z,100555.20
2022-10-18T19:40:16.027Z,100556.19
2022-10-18T19:45:18.486Z,100550.94
2022-10-18T19:50:20.916Z,100547.77
2022-10-18T19:55:25.079Z,100544.58
2022-10-18T20:00:27.602Z,100539.20
2022-10-18T20:05:30.328Z,100528.80
2022-10-18T20:10:32.759Z,100524.61
2022-10-18T20:15:35.162Z,100526.30
2022-10-18T20:20:37.603Z,100529.42
2022-10-18T20:25:39.988Z,100525.49
2022-10-18T20:30:42.359Z,100526.97
2022-10-18T20:35:47.687Z,100528.86
2022-10-18T20:40:53.777Z,100522.15
2022-10-18T20:45:56.820Z,100526.59
2022-10-18T20:51:02.128Z,100528.02
2022-10-18T20:56:05.851Z,100519.17
2022-10-18T21:01:11.069Z,100499.14
2022-10-18T21:06:14.832Z,100498.67
2022-10-18T21:11:17.251Z,100500.23
2022-10-18T21:16:20.045Z,100498.80
2022-10-18T21:21:23.519Z,100496.66
2022-10-18T21:26:26.629Z,100491.47
2022-10-18T21:31:29.986Z,100488.91
2022-10-18T21:36:33.864Z,100486.68
2022-10-18T21:41:36.458Z,100483.73
2022-10-18T21:46:39.583Z,100485.70
2022-10-18T21:51:42.054Z,100482.38
2022-10-18T21:56:44.856Z,100478.26
2022-10-18T22:01:47.335Z,100471.25
2022-10-18T22:06:50.097Z,100468.22
2022-10-18T22:11:53.245Z,100463.91
2022-10-18T22:16:55.632Z,100458.66
2022-10-18T22:21:57.989Z,100451.82
2022-10-18T22:27:00.565Z,100447.70
2022-10-18T22:32:02.972Z,100439.58
2022-10-18T22:37:05.697Z,100426.21
2022-10-18T22:42:08.132Z,100419.21
2022-10-18T22:47:10.493Z,100410.85
2022-10-18T22:52:12.839Z,100396.59
2022-10-18T22:57:15.252Z,100385.93
2022-10-18T23:02:17.634Z,100384.65
2022-10-18T23:07:20.107Z,100388.50
2022-10-18T23:12:22.584Z,100400.71
2022-10-18T23:17:25.008Z,100397.00
2022-10-18T23:22:27.367Z,100392.36
2022-10-18T23:27:30.008Z,100381.23
2022-10-18T23:32:33.031Z,100382.64
2022-10-18T23:37:35.999Z,100380.95
2022-10-18T23:42:38.808Z,100375.97
2022-10-18T23:47:41.200Z,100372.06
2022-10-18T23:52:43.594Z,100363.01
2022-10-18T23:57:46.016Z,100356.46
